Time;durP1;ratioP1;P1;durP2;ratioP2;P2;SDS_P1;SDS_P2;PMS_P1;PMS_P2;Temp;Humidity;BMP_temperature;BMP_pressure;BME280_temperature;BME280_humidity;BME280_pressure;Samples;Min_cycle;Max_cycle;Signal;HPM_P1;HPM_P2
2021/08/12 00:02:50;;;;;;;8.88;4.28;;;;;;;;;;6122473;23;20201;-91
2021/08/12 00:05:54;;;;;;;11.57;4.55;;;;;;;;;;6121689;23;20153;-92
2021/08/12 00:09:01;;;;;;;7.28;4.03;;;;;;;;;;6122188;23;20685;-91
2021/08/12 00:12:06;;;;;;;8.35;4.07;;;;;;;;;;6123392;23;20230;-92
2021/08/12 00:15:11;;;;;;;10.38;4.47;;;;;;;;;;6122695;23;20165;-90
2021/08/12 00:18:17;;;;;;;8.60;3.67;;;;;;;;;;6122107;23;20169;-92
2021/08/12 00:21:23;;;;;;;8.05;4.47;;;;;;;;;;6123700;23;20173;-91
2021/08/12 00:24:29;;;;;;;8.50;4.10;;;;;;;;;;6122875;23;20165;-91
2021/08/12 00:27:35;;;;;;;7.30;4.25;;;;;;;;;;6124286;23;20154;-92
2021/08/12 00:30:40;;;;;;;10.40;3.95;;;;;;;;;;6123919;23;20201;-92
2021/08/12 00:33:46;;;;;;;9.73;4.88;;;;;;;;;;6123650;23;20164;-92
2021/08/12 00:36:50;;;;;;;8.07;4.78;;;;;;;;;;6123915;23;20161;-92
2021/08/12 00:39:57;;;;;;;9.32;4.30;;;;;;;;;;6125234;23;20173;-93
2021/08/12 00:43:01;;;;;;;8.57;3.78;;;;;;;;;;6123252;23;20240;-91
2021/08/12 00:46:07;;;;;;;11.55;3.75;;;;;;;;;;6125124;23;20189;-91
2021/08/12 00:49:13;;;;;;;10.48;4.13;;;;;;;;;;6123717;23;20192;-91
2021/08/12 00:52:23;;;;;;;13.07;4.47;;;;;;;;;;6123721;23;20169;-91
2021/08/12 00:55:31;;;;;;;6.85;3.92;;;;;;;;;;6125223;23;20168;-89
2021/08/12 00:58:37;;;;;;;8.75;4.28;;;;;;;;;;6122604;23;20165;-92
2021/08/12 01:01:44;;;;;;;9.25;4.05;;;;;;;;;;6124343;23;20185;-91
2021/08/12 01:04:50;;;;;;;8.40;4.35;;;;;;;;;;6124468;23;20217;-90
2021/08/12 01:07:57;;;;;;;10.25;4.25;;;;;;;;;;6121291;23;20178;-92
2021/08/12 01:11:07;;;;;;;6.75;3.83;;;;;;;;;;6122586;23;20531;-91
2021/08/12 01:14:18;;;;;;;9.32;4.30;;;;;;;;;;6122193;23;20217;-90
2021/08/12 01:17:26;;;;;;;9.10;4.30;;;;;;;;;;6124022;23;20158;-92
2021/08/12 01:20:52;;;;;;;7.95;4.50;;;;;;;;;;6123908;23;20176;-89
2021/08/12 01:23:59;;;;;;;10.38;3.78;;;;;;;;;;6122414;23;20165;-91
2021/08/12 01:27:08;;;;;;;9.25;4.07;;;;;;;;;;6124468;23;20556;-90
2021/08/12 01:30:17;;;;;;;9.13;4.13;;;;;;;;;;6124718;23;20205;-91
2021/08/12 01:33:28;;;;;;;16.95;4.25;;;;;;;;;;6123030;23;20173;-91
2021/08/12 01:36:36;;;;;;;11.32;4.25;;;;;;;;;;6123421;23;20169;-92
2021/08/12 01:39:42;;;;;;;8.32;4.53;;;;;;;;;;6123624;23;20201;-90
2021/08/12 01:42:49;;;;;;;6.82;4.30;;;;;;;;;;6124302;23;20177;-93
2021/08/12 01:45:57;;;;;;;6.93;3.90;;;;;;;;;;6124200;23;20169;-90
2021/08/12 01:49:03;;;;;;;8.00;4.50;;;;;;;;;;6122093;23;20196;-90
2021/08/12 01:52:11;;;;;;;9.80;4.80;;;;;;;;;;6122244;23;20651;-91
2021/08/12 01:55:16;;;;;;;10.82;4.15;;;;;;;;;;6120344;23;20225;-90
2021/08/12 01:58:26;;;;;;;11.05;4.60;;;;;;;;;;6121831;23;20215;-90
2021/08/12 02:01:31;;;;;;;7.43;4.05;;;;;;;;;;6119437;23;20252;-91
2021/08/12 02:04:37;;;;;;;10.73;4.13;;;;;;;;;;6119634;23;20144;-89
2021/08/12 02:07:44;;;;;;;6.20;4.07;;;;;;;;;;6121119;23;20181;-91
2021/08/12 02:10:50;;;;;;;11.55;4.18;;;;;;;;;;6119553;23;20224;-91
2021/08/12 02:13:55;;;;;;;8.80;4.78;;;;;;;;;;6119635;23;20165;-89
2021/08/12 02:17:01;;;;;;;8.32;4.53;;;;;;;;;;6120937;23;20168;-92
2021/08/12 02:20:07;;;;;;;10.77;4.97;;;;;;;;;;6120730;23;20181;-90
2021/08/12 02:23:16;;;;;;;10.20;4.35;;;;;;;;;;6121626;23;20174;-91
2021/08/12 02:26:22;;;;;;;7.93;4.28;;;;;;;;;;6120781;23;20169;-91
2021/08/12 02:29:29;;;;;;;14.30;4.40;;;;;;;;;;6120520;23;20165;-92
2021/08/12 02:32:35;;;;;;;8.25;4.00;;;;;;;;;;6123288;23;20672;-91
2021/08/12 02:35:42;;;;;;;11.70;4.00;;;;;;;;;;6120356;23;20181;-92
2021/08/12 02:38:50;;;;;;;7.90;4.65;;;;;;;;;;6124311;23;20153;-90
2021/08/12 02:41:55;;;;;;;9.05;4.40;;;;;;;;;;6122459;23;20181;-92
2021/08/12 02:45:02;;;;;;;7.18;3.75;;;;;;;;;;6123079;23;20165;-92
2021/08/12 02:48:10;;;;;;;9.30;4.22;;;;;;;;;;6120941;23;20514;-92
2021/08/12 02:51:16;;;;;;;8.00;4.03;;;;;;;;;;6121583;23;20215;-90
2021/08/12 02:54:23;;;;;;;13.10;4.68;;;;;;;;;;6122425;23;20157;-92
2021/08/12 02:57:28;;;;;;;7.93;4.22;;;;;;;;;;6123018;23;20155;-91
2021/08/12 03:00:34;;;;;;;11.25;4.35;;;;;;;;;;6123192;23;20189;-91
2021/08/12 03:03:41;;;;;;;10.27;4.50;;;;;;;;;;6124405;23;20157;-92
2021/08/12 03:06:47;;;;;;;8.70;4.03;;;;;;;;;;6123465;23;20161;-91
2021/08/12 03:09:56;;;;;;;8.50;4.50;;;;;;;;;;6122742;23;20156;-91
2021/08/12 03:13:05;;;;;;;13.15;4.60;;;;;;;;;;6123980;23;20176;-91
2021/08/12 03:16:11;;;;;;;8.63;4.35;;;;;;;;;;6124515;23;20173;-92
2021/08/12 03:19:17;;;;;;;9.00;4.28;;;;;;;;;;6124296;23;20174;-91
2021/08/12 03:22:24;;;;;;;9.10;4.57;;;;;;;;;;6124078;23;20297;-91
2021/08/12 03:25:31;;;;;;;9.48;4.88;;;;;;;;;;6121571;23;20173;-91
2021/08/12 03:28:44;;;;;;;10.10;4.63;;;;;;;;;;6124072;23;20238;-93
2021/08/12 03:31:49;;;;;;;8.57;4.80;;;;;;;;;;6123379;23;20196;-91
2021/08/12 03:34:54;;;;;;;9.85;4.55;;;;;;;;;;6124208;23;20168;-93
2021/08/12 03:37:58;;;;;;;9.30;4.28;;;;;;;;;;6122911;23;20169;-90
2021/08/12 03:41:06;;;;;;;7.40;4.22;;;;;;;;;;6123495;23;20625;-92
2021/08/12 03:44:11;;;;;;;26.77;13.60;;;;;;;;;;6121615;23;20169;-91
2021/08/12 03:47:18;;;;;;;11.23;5.25;;;;;;;;;;6120735;23;20173;-91
2021/08/12 03:50:23;;;;;;;15.80;4.45;;;;;;;;;;6121095;23;20157;-91
2021/08/12 03:53:28;;;;;;;10.63;4.95;;;;;;;;;;6123994;23;20235;-91
2021/08/12 03:56:35;;;;;;;11.32;4.53;;;;;;;;;;6122500;23;20165;-90
2021/08/12 03:59:40;;;;;;;11.80;4.82;;;;;;;;;;6121603;23;20164;-89
2021/08/12 04:02:57;;;;;;;14.93;5.13;;;;;;;;;;6123164;23;20168;-91
2021/08/12 04:06:04;;;;;;;11.50;4.95;;;;;;;;;;6122717;23;20186;-91
2021/08/12 04:09:10;;;;;;;13.25;5.32;;;;;;;;;;6124353;23;20168;-91
2021/08/12 04:12:17;;;;;;;9.63;4.90;;;;;;;;;;6125479;23;20201;-93
2021/08/12 04:15:22;;;;;;;9.10;4.65;;;;;;;;;;6125007;23;20164;-91
2021/08/12 04:18:28;;;;;;;10.63;4.70;;;;;;;;;;6125450;23;20153;-93
2021/08/12 04:21:33;;;;;;;11.15;4.63;;;;;;;;;;6127387;23;20161;-92
2021/08/12 04:24:40;;;;;;;7.45;4.72;;;;;;;;;;6125747;23;20165;-92
2021/08/12 04:27:47;;;;;;;12.52;5.57;;;;;;;;;;6124465;23;20168;-90
2021/08/12 04:30:53;;;;;;;9.82;5.03;;;;;;;;;;6126546;23;20160;-90
2021/08/12 04:33:59;;;;;;;11.13;5.07;;;;;;;;;;6124951;23;20215;-92
2021/08/12 04:37:05;;;;;;;14.05;5.10;;;;;;;;;;6144739;23;20157;-91
2021/08/12 04:40:11;;;;;;;14.15;5.47;;;;;;;;;;6122950;23;20169;-91
2021/08/12 04:43:17;;;;;;;8.52;4.93;;;;;;;;;;6122568;23;20169;-92
2021/08/12 04:46:23;;;;;;;8.73;4.90;;;;;;;;;;6123575;23;20592;-92
2021/08/12 04:49:28;;;;;;;9.45;5.10;;;;;;;;;;6123124;23;20189;-92
2021/08/12 04:52:34;;;;;;;10.32;4.82;;;;;;;;;;6121245;23;20276;-91
2021/08/12 04:55:39;;;;;;;11.13;4.70;;;;;;;;;;6123683;23;20173;-94
2021/08/12 04:58:47;;;;;;;9.55;4.15;;;;;;;;;;6120610;23;20602;-93
2021/08/12 05:01:54;;;;;;;9.13;4.45;;;;;;;;;;6122391;23;20173;-93
2021/08/12 05:04:59;;;;;;;9.30;4.47;;;;;;;;;;6123395;23;20233;-91
2021/08/12 05:08:04;;;;;;;10.55;4.35;;;;;;;;;;6120344;23;20185;-93
2021/08/12 05:11:10;;;;;;;8.30;4.60;;;;;;;;;;6122980;23;20172;-91
2021/08/12 05:14:32;;;;;;;7.68;4.65;;;;;;;;;;6126776;23;20173;-90
2021/08/12 05:17:53;;;;;;;9.15;4.32;;;;;;;;;;6125997;23;20170;-90
2021/08/12 05:21:00;;;;;;;9.35;5.15;;;;;;;;;;6121611;23;20548;-92
2021/08/12 05:24:05;;;;;;;10.25;4.65;;;;;;;;;;6123537;23;20148;-91
2021/08/12 05:27:14;;;;;;;7.72;4.32;;;;;;;;;;6122129;23;20165;-91
2021/08/12 05:30:20;;;;;;;8.57;4.38;;;;;;;;;;6121070;23;20613;-89
2021/08/12 05:33:26;;;;;;;10.45;4.55;;;;;;;;;;6123883;23;20196;-90
2021/08/12 05:36:32;;;;;;;10.07;4.80;;;;;;;;;;6126248;23;20189;-91
2021/08/12 05:39:37;;;;;;;7.72;4.30;;;;;;;;;;6122910;23;20170;-91
2021/08/12 05:42:42;;;;;;;9.65;4.78;;;;;;;;;;6121001;23;20237;-92
2021/08/12 05:45:48;;;;;;;9.85;4.75;;;;;;;;;;6122805;23;20177;-91
2021/08/12 05:48:53;;;;;;;11.55;4.70;;;;;;;;;;6123341;23;20193;-91
2021/08/12 05:51:59;;;;;;;7.88;4.70;;;;;;;;;;6120886;23;20312;-90
2021/08/12 05:55:05;;;;;;;11.98;4.72;;;;;;;;;;6119866;23;20173;-90
2021/08/12 05:58:10;;;;;;;6.80;4.47;;;;;;;;;;6121053;23;20206;-91
2021/08/12 07:14:39;;;;;;;7.72;3.92;;;;;;;;;;6114681;23;20229;-91
2021/08/12 07:17:44;;;;;;;9.70;4.50;;;;;;;;;;6125719;23;20198;-90
2021/08/12 07:20:51;;;;;;;9.45;4.38;;;;;;;;;;6145373;23;20174;-91
2021/08/12 07:23:56;;;;;;;5.82;3.78;;;;;;;;;;6128141;23;20178;-90
2021/08/12 07:27:03;;;;;;;7.25;4.40;;;;;;;;;;6123997;23;20169;-90
2021/08/12 07:30:10;;;;;;;8.75;4.30;;;;;;;;;;6122756;23;20220;-92
2021/08/12 07:33:15;;;;;;;11.60;4.68;;;;;;;;;;6121777;23;20192;-91
2021/08/12 07:36:20;;;;;;;7.68;4.22;;;;;;;;;;6122899;23;20176;-90
2021/08/12 07:39:25;;;;;;;12.82;4.50;;;;;;;;;;6127698;23;20164;-91
2021/08/12 07:42:31;;;;;;;6.75;4.25;;;;;;;;;;6106430;23;20307;-90
2021/08/12 07:45:37;;;;;;;7.72;4.15;;;;;;;;;;6125854;23;20181;-90
2021/08/12 07:48:42;;;;;;;9.25;4.38;;;;;;;;;;6124564;23;20172;-89
2021/08/12 07:51:47;;;;;;;17.05;5.20;;;;;;;;;;6124965;23;20191;-90
2021/08/12 07:54:55;;;;;;;8.38;3.95;;;;;;;;;;6128596;23;20637;-91
2021/08/12 07:58:00;;;;;;;14.93;4.60;;;;;;;;;;6125411;23;20168;-92
2021/08/12 08:01:07;;;;;;;11.48;4.63;;;;;;;;;;6108625;23;20252;-90
2021/08/12 08:04:12;;;;;;;8.60;4.15;;;;;;;;;;6126445;23;20168;-90
2021/08/12 08:07:18;;;;;;;8.93;4.88;;;;;;;;;;6126280;23;20289;-90
2021/08/12 08:10:25;;;;;;;9.52;4.93;;;;;;;;;;6125187;23;20221;-90
2021/08/12 08:13:30;;;;;;;6.80;4.63;;;;;;;;;;6127253;23;20260;-91
2021/08/12 08:16:57;;;;;;;11.00;4.97;;;;;;;;;;6127308;23;20647;-92
2021/08/12 08:20:04;;;;;;;18.25;7.63;;;;;;;;;;6120641;23;20185;-91
2021/08/12 08:23:11;;;;;;;15.50;5.03;;;;;;;;;;6125348;23;20168;-92
2021/08/12 08:26:16;;;;;;;11.38;5.50;;;;;;;;;;6121509;23;20216;-91
2021/08/12 08:29:22;;;;;;;9.77;4.70;;;;;;;;;;6124052;23;20184;-91
2021/08/12 08:32:31;;;;;;;9.27;5.35;;;;;;;;;;6125134;23;20248;-90
2021/08/12 08:35:42;;;;;;;11.07;5.38;;;;;;;;;;6122329;23;20172;-91
2021/08/12 08:38:56;;;;;;;8.35;5.07;;;;;;;;;;6123716;23;20214;-90
2021/08/12 08:42:11;;;;;;;10.70;5.20;;;;;;;;;;6120455;23;20168;-90
2021/08/12 08:45:17;;;;;;;10.10;5.45;;;;;;;;;;6121996;23;20168;-90
2021/08/12 08:48:26;;;;;;;8.60;5.40;;;;;;;;;;6121953;23;20173;-91
2021/08/12 08:51:36;;;;;;;11.27;6.20;;;;;;;;;;6121731;23;20160;-90
2021/08/12 08:54:43;;;;;;;11.20;5.55;;;;;;;;;;6121882;23;20592;-87
2021/08/12 08:57:49;;;;;;;12.35;6.05;;;;;;;;;;6121079;23;20601;-89
2021/08/12 09:00:54;;;;;;;12.13;5.72;;;;;;;;;;6122670;23;20168;-90
2021/08/12 09:03:59;;;;;;;13.20;5.80;;;;;;;;;;6121486;23;20253;-90
2021/08/12 09:07:07;;;;;;;11.80;5.53;;;;;;;;;;6122871;23;20220;-90
2021/08/12 09:10:14;;;;;;;9.02;5.68;;;;;;;;;;6120022;23;20168;-89
2021/08/12 09:13:19;;;;;;;11.18;5.57;;;;;;;;;;6120598;23;20192;-90
2021/08/12 09:16:31;;;;;;;9.95;6.03;;;;;;;;;;6120684;23;20264;-90
2021/08/12 09:19:36;;;;;;;11.02;6.10;;;;;;;;;;6138128;23;20172;-89
2021/08/12 09:23:03;;;;;;;11.63;5.75;;;;;;;;;;6121294;23;20168;-90
2021/08/12 09:26:22;;;;;;;19.65;6.88;;;;;;;;;;6123926;23;20165;-90
2021/08/12 09:29:28;;;;;;;10.07;5.85;;;;;;;;;;6123002;23;20168;-89
2021/08/12 09:32:44;;;;;;;12.43;5.70;;;;;;;;;;6122149;23;20216;-90
2021/08/12 09:35:49;;;;;;;14.40;5.75;;;;;;;;;;6122652;23;20164;-89
2021/08/12 09:39:23;;;;;;;10.93;5.28;;;;;;;;;;6119655;23;20492;-89
2021/08/12 09:42:52;;;;;;;10.70;6.25;;;;;;;;;;6105141;23;20195;-89
2021/08/12 09:45:57;;;;;;;14.32;5.95;;;;;;;;;;6120719;23;20172;-89
2021/08/12 09:49:03;;;;;;;9.48;5.93;;;;;;;;;;6121233;23;20188;-90
2021/08/12 09:52:18;;;;;;;9.73;5.32;;;;;;;;;;6120708;23;20168;-90
2021/08/12 09:55:23;;;;;;;10.80;5.45;;;;;;;;;;6118966;23;20248;-90
2021/08/12 09:58:34;;;;;;;8.63;5.55;;;;;;;;;;6118802;23;20169;-89
2021/08/12 10:01:39;;;;;;;9.35;5.95;;;;;;;;;;6119731;23;20270;-90
2021/08/12 10:04:44;;;;;;;9.65;5.40;;;;;;;;;;6118169;23;20255;-89
2021/08/12 10:07:51;;;;;;;10.88;6.18;;;;;;;;;;6122597;23;20206;-91
2021/08/12 10:10:57;;;;;;;11.15;6.90;;;;;;;;;;6118459;23;20208;-88
2021/08/12 10:14:05;;;;;;;9.73;5.85;;;;;;;;;;6118517;23;20200;-89
2021/08/12 10:17:10;;;;;;;13.98;5.47;;;;;;;;;;6118995;23;20204;-90
2021/08/12 10:20:18;;;;;;;9.95;5.28;;;;;;;;;;6120594;23;20172;-90
2021/08/12 10:23:23;;;;;;;10.00;5.15;;;;;;;;;;6122235;23;20168;-89
2021/08/12 10:26:30;;;;;;;8.35;5.65;;;;;;;;;;6119728;23;20289;-90
2021/08/12 10:29:37;;;;;;;9.43;5.22;;;;;;;;;;6121259;23;20172;-90
2021/08/12 10:32:44;;;;;;;9.25;5.28;;;;;;;;;;6122304;23;20220;-90
2021/08/12 10:35:50;;;;;;;11.18;5.65;;;;;;;;;;6125709;23;20160;-91
2021/08/12 10:38:55;;;;;;;6.68;4.82;;;;;;;;;;6123425;23;20177;-88
2021/08/12 10:42:00;;;;;;;7.95;5.47;;;;;;;;;;6123389;23;20165;-90
2021/08/12 10:45:19;;;;;;;11.60;5.47;;;;;;;;;;6107942;23;20173;-92
2021/08/12 10:48:24;;;;;;;12.60;5.43;;;;;;;;;;6123480;23;20613;-91
2021/08/12 10:51:46;;;;;;;11.23;5.45;;;;;;;;;;6124117;23;20252;-92
2021/08/12 10:55:11;;;;;;;9.02;5.32;;;;;;;;;;6123010;23;20160;-91
2021/08/12 10:58:35;;;;;;;11.65;5.20;;;;;;;;;;6124668;23;20168;-92
2021/08/12 11:01:42;;;;;;;9.15;4.93;;;;;;;;;;6123269;23;20213;-91
2021/08/12 11:04:51;;;;;;;9.80;4.85;;;;;;;;;;6122817;23;20175;-91
2021/08/12 11:07:56;;;;;;;8.80;5.18;;;;;;;;;;6124836;23;20168;-93
2021/08/12 11:11:01;;;;;;;7.35;4.97;;;;;;;;;;6124490;23;20252;-92
2021/08/12 11:14:07;;;;;;;7.30;5.13;;;;;;;;;;6123241;23;20332;-92
2021/08/12 11:17:16;;;;;;;8.73;4.80;;;;;;;;;;6124922;23;20192;-92
2021/08/12 11:20:39;;;;;;;11.55;5.53;;;;;;;;;;6121740;23;20616;-91
2021/08/12 11:23:44;;;;;;;8.10;4.85;;;;;;;;;;6124854;23;20172;-91
2021/08/12 11:27:05;;;;;;;7.07;4.80;;;;;;;;;;6124324;23;20164;-93
2021/08/12 11:30:24;;;;;;;9.75;5.22;;;;;;;;;;6124396;23;20587;-91
2021/08/12 11:33:35;;;;;;;9.27;4.50;;;;;;;;;;6122775;23;20276;-93
2021/08/12 11:40:28;;;;;;;9.98;4.72;;;;;;;;;;6125148;23;20160;-91
2021/08/12 11:43:32;;;;;;;11.27;5.00;;;;;;;;;;6122779;23;20232;-92
2021/08/12 11:46:38;;;;;;;9.30;4.55;;;;;;;;;;6124423;23;20177;-91
2021/08/12 11:49:48;;;;;;;6.50;4.32;;;;;;;;;;6124252;23;20608;-92
2021/08/12 11:52:54;;;;;;;6.25;4.20;;;;;;;;;;6122799;23;20204;-92
2021/08/12 11:55:59;;;;;;;7.38;4.72;;;;;;;;;;6123419;23;20628;-92
2021/08/12 11:59:04;;;;;;;11.75;4.65;;;;;;;;;;6125187;23;20168;-93
2021/08/12 12:02:10;;;;;;;6.75;4.30;;;;;;;;;;6123235;23;20180;-91
2021/08/12 12:05:18;;;;;;;9.18;4.38;;;;;;;;;;6123486;23;20176;-91
2021/08/12 12:08:28;;;;;;;6.72;4.30;;;;;;;;;;6126595;23;20204;-90
2021/08/12 12:11:35;;;;;;;9.23;4.32;;;;;;;;;;6125554;23;20168;-91
2021/08/12 12:14:42;;;;;;;7.57;4.47;;;;;;;;;;6126520;23;20212;-90
2021/08/12 12:17:48;;;;;;;6.60;4.13;;;;;;;;;;6122826;23;20240;-92
2021/08/12 12:20:55;;;;;;;6.95;4.80;;;;;;;;;;6124183;23;20228;-91
2021/08/12 12:24:07;;;;;;;15.23;4.57;;;;;;;;;;6122210;23;20176;-91
2021/08/12 12:27:12;;;;;;;7.60;4.60;;;;;;;;;;6124850;23;20169;-91
2021/08/12 12:30:18;;;;;;;9.25;4.47;;;;;;;;;;6125005;23;20600;-93
2021/08/12 12:33:26;;;;;;;7.95;4.35;;;;;;;;;;6124914;23;20563;-90
2021/08/12 12:36:41;;;;;;;7.80;4.43;;;;;;;;;;6122632;23;20427;-89
2021/08/12 12:39:46;;;;;;;9.75;4.90;;;;;;;;;;6124215;23;20217;-92
2021/08/12 12:42:53;;;;;;;6.95;4.05;;;;;;;;;;6123327;23;20173;-93
2021/08/12 12:45:58;;;;;;;6.25;4.22;;;;;;;;;;6126248;23;20172;-93
2021/08/12 12:49:17;;;;;;;8.57;4.38;;;;;;;;;;6122501;23;20172;-93
2021/08/12 12:52:24;;;;;;;7.65;4.38;;;;;;;;;;6123260;23;20169;-92
2021/08/12 12:55:33;;;;;;;7.43;3.92;;;;;;;;;;6122216;23;20493;-91
2021/08/12 12:58:38;;;;;;;9.20;4.60;;;;;;;;;;6121973;23;20152;-92
2021/08/12 13:01:54;;;;;;;7.97;4.57;;;;;;;;;;6124367;23;20209;-91
2021/08/12 13:05:00;;;;;;;8.15;4.10;;;;;;;;;;6122781;23;20159;-91
2021/08/12 13:08:13;;;;;;;11.95;4.90;;;;;;;;;;6123775;23;20209;-92
2021/08/12 13:11:19;;;;;;;9.20;4.40;;;;;;;;;;6122785;23;20165;-91
2021/08/12 13:14:35;;;;;;;9.35;4.47;;;;;;;;;;6126157;23;20200;-91
2021/08/12 13:17:40;;;;;;;7.40;4.63;;;;;;;;;;6125462;23;20247;-93
2021/08/12 13:20:47;;;;;;;11.93;4.95;;;;;;;;;;6129525;23;20171;-93
2021/08/12 13:23:55;;;;;;;8.10;4.75;;;;;;;;;;6127959;23;20623;-91
2021/08/12 13:27:01;;;;;;;9.05;4.85;;;;;;;;;;6126208;23;20164;-91
2021/08/12 13:30:07;;;;;;;9.63;4.97;;;;;;;;;;6126523;23;20168;-90
2021/08/12 13:33:30;;;;;;;11.02;5.05;;;;;;;;;;6124348;23;20169;-91
2021/08/12 13:36:35;;;;;;;6.55;4.63;;;;;;;;;;6124029;23;20169;-92
2021/08/12 13:39:45;;;;;;;8.00;4.53;;;;;;;;;;6126983;23;20212;-91
2021/08/12 13:42:58;;;;;;;7.55;4.80;;;;;;;;;;6125693;23;20169;-92
2021/08/12 13:46:05;;;;;;;10.35;4.80;;;;;;;;;;6125201;23;20169;-93
2021/08/12 13:49:10;;;;;;;7.43;4.75;;;;;;;;;;6126007;23;20152;-91
2021/08/12 13:52:17;;;;;;;9.27;5.15;;;;;;;;;;6126104;23;20173;-90
2021/08/12 13:55:26;;;;;;;10.18;4.93;;;;;;;;;;6124998;23;20196;-91
2021/08/12 13:58:32;;;;;;;7.97;5.13;;;;;;;;;;6126270;23;20168;-90
2021/08/12 14:01:38;;;;;;;13.30;4.97;;;;;;;;;;6124577;23;20244;-91
2021/08/12 14:04:45;;;;;;;12.27;5.03;;;;;;;;;;6127843;23;20177;-90
2021/08/12 14:07:51;;;;;;;7.43;4.80;;;;;;;;;;6124868;23;20169;-91
2021/08/12 14:11:01;;;;;;;10.38;4.78;;;;;;;;;;6124917;23;20168;-90
2021/08/12 14:14:06;;;;;;;10.88;5.28;;;;;;;;;;6124637;23;20219;-90
2021/08/12 14:17:12;;;;;;;11.43;4.60;;;;;;;;;;6122401;23;20181;-91
2021/08/12 14:20:17;;;;;;;7.60;5.05;;;;;;;;;;6121459;23;20217;-90
2021/08/12 14:23:22;;;;;;;8.00;5.00;;;;;;;;;;6126653;23;20157;-92
2021/08/12 14:26:30;;;;;;;9.30;5.20;;;;;;;;;;6124000;23;20180;-91
2021/08/12 14:29:35;;;;;;;13.63;5.60;;;;;;;;;;6125731;23;20171;-91
2021/08/12 14:32:41;;;;;;;8.38;5.03;;;;;;;;;;6125535;23;20165;-92
2021/08/12 14:35:47;;;;;;;11.20;5.20;;;;;;;;;;6125058;23;20192;-90
2021/08/12 14:39:00;;;;;;;6.55;4.70;;;;;;;;;;6125472;23;20191;-92
2021/08/12 14:42:10;;;;;;;11.75;5.45;;;;;;;;;;6144479;23;20244;-93
2021/08/12 14:45:17;;;;;;;8.20;5.10;;;;;;;;;;6126921;23;20234;-90
2021/08/12 14:48:22;;;;;;;7.35;5.00;;;;;;;;;;6129613;23;20153;-90
2021/08/12 14:51:27;;;;;;;7.38;4.75;;;;;;;;;;6127733;23;20180;-91
2021/08/12 14:54:32;;;;;;;8.50;4.95;;;;;;;;;;6130410;23;20199;-91
2021/08/12 14:57:40;;;;;;;8.75;5.38;;;;;;;;;;6129811;23;20176;-92
2021/08/12 15:00:46;;;;;;;8.40;5.03;;;;;;;;;;6127735;23;20197;-90
2021/08/12 16:04:04;;;;;;;9.68;5.45;;;;;;;;;;6193700;22;1288598;-88
2021/08/12 16:07:09;;;;;;;9.68;5.65;;;;;;;;;;6221892;23;20158;-90
2021/08/12 16:10:17;;;;;;;13.38;6.20;;;;;;;;;;6220446;23;20162;-90
2021/08/12 16:13:25;;;;;;;8.20;5.50;;;;;;;;;;6220788;23;20202;-90
2021/08/12 16:16:35;;;;;;;8.50;5.03;;;;;;;;;;6212162;23;20246;-90
2021/08/12 16:19:42;;;;;;;9.90;6.18;;;;;;;;;;6229567;23;20274;-90
2021/08/12 16:22:47;;;;;;;11.27;5.80;;;;;;;;;;6211601;23;20190;-91
2021/08/12 16:25:53;;;;;;;12.90;5.88;;;;;;;;;;6211367;23;20162;-90
2021/08/12 16:28:59;;;;;;;11.10;5.80;;;;;;;;;;6211451;23;20155;-89
2021/08/12 16:32:05;;;;;;;11.32;5.60;;;;;;;;;;6211095;23;20699;-89
2021/08/12 16:35:11;;;;;;;13.63;5.97;;;;;;;;;;6208434;23;20299;-90
2021/08/12 16:38:16;;;;;;;10.00;5.53;;;;;;;;;;6209216;23;20231;-89
2021/08/12 16:41:21;;;;;;;12.60;5.53;;;;;;;;;;6211552;23;20171;-89
2021/08/12 16:44:27;;;;;;;11.98;7.40;;;;;;;;;;6210411;23;20215;-89
2021/08/12 16:47:32;;;;;;;14.27;6.43;;;;;;;;;;6211442;23;20159;-89
2021/08/12 16:50:38;;;;;;;12.63;5.97;;;;;;;;;;6209592;23;20170;-87
2021/08/12 16:53:43;;;;;;;13.68;6.15;;;;;;;;;;6208396;23;20472;-90
2021/08/12 16:56:48;;;;;;;9.85;5.80;;;;;;;;;;6209707;23;20150;-91
2021/08/12 16:59:54;;;;;;;11.50;6.20;;;;;;;;;;6210416;23;20166;-89
2021/08/12 17:03:00;;;;;;;13.98;5.97;;;;;;;;;;6210824;23;20199;-89
2021/08/12 17:06:06;;;;;;;9.90;5.97;;;;;;;;;;6209944;23;20155;-88
2021/08/12 17:09:11;;;;;;;13.85;5.80;;;;;;;;;;6211139;23;20171;-87
2021/08/12 17:12:16;;;;;;;11.93;6.10;;;;;;;;;;6210585;23;20218;-90
2021/08/12 17:15:23;;;;;;;9.95;5.55;;;;;;;;;;6211993;23;20227;-88
2021/08/12 17:18:28;;;;;;;9.38;5.43;;;;;;;;;;6210360;23;20207;-88
2021/08/12 17:21:35;;;;;;;9.50;5.47;;;;;;;;;;6210878;23;20167;-89
2021/08/12 17:24:40;;;;;;;15.07;6.32;;;;;;;;;;6212937;23;20179;-88
2021/08/12 17:27:47;;;;;;;12.55;6.18;;;;;;;;;;6214426;23;20167;-90
2021/08/12 17:30:51;;;;;;;10.43;6.32;;;;;;;;;;6211512;23;20175;-89
2021/08/12 17:33:56;;;;;;;10.63;6.07;;;;;;;;;;6213872;23;20166;-88
2021/08/12 17:37:03;;;;;;;14.88;7.18;;;;;;;;;;6212248;23;20171;-88
2021/08/12 17:40:09;;;;;;;14.30;7.00;;;;;;;;;;6212614;23;20227;-88
2021/08/12 17:43:15;;;;;;;46.97;19.58;;;;;;;;;;6214100;23;20186;-89
2021/08/12 17:46:20;;;;;;;16.50;6.55;;;;;;;;;;6210366;23;20167;-89
2021/08/12 17:49:25;;;;;;;12.32;6.82;;;;;;;;;;6209253;23;20167;-89
2021/08/12 17:52:33;;;;;;;10.60;6.25;;;;;;;;;;6211089;23;20171;-89
2021/08/12 17:55:39;;;;;;;13.70;6.75;;;;;;;;;;6208982;23;20208;-88
2021/08/12 17:58:46;;;;;;;15.75;7.07;;;;;;;;;;6210987;23;20186;-89
2021/08/12 18:01:51;;;;;;;16.70;8.57;;;;;;;;;;6210402;23;20167;-88
2021/08/12 18:04:58;;;;;;;11.07;6.15;;;;;;;;;;6198406;23;20195;-90
2021/08/12 18:08:09;;;;;;;10.82;6.18;;;;;;;;;;6197757;23;20240;-88
2021/08/12 18:11:14;;;;;;;12.05;6.75;;;;;;;;;;6198636;23;20172;-89
2021/08/12 18:14:19;;;;;;;13.73;6.80;;;;;;;;;;6198982;23;20202;-87
2021/08/12 18:17:25;;;;;;;11.75;7.00;;;;;;;;;;6199765;23;20246;-89
2021/08/12 18:20:32;;;;;;;14.63;7.10;;;;;;;;;;6198653;23;20250;-90
2021/08/12 18:23:38;;;;;;;9.68;6.30;;;;;;;;;;6198743;23;20196;-90
2021/08/12 18:26:50;;;;;;;15.95;8.85;;;;;;;;;;6199600;23;20205;-89
2021/08/12 18:29:55;;;;;;;13.57;6.97;;;;;;;;;;6198174;23;20172;-88
2021/08/12 18:33:01;;;;;;;13.30;7.15;;;;;;;;;;6197794;23;20171;-88
2021/08/12 18:36:07;;;;;;;13.98;7.00;;;;;;;;;;6197864;23;20159;-89
2021/08/12 18:39:16;;;;;;;14.07;7.28;;;;;;;;;;6198236;23;20167;-88
2021/08/12 18:42:21;;;;;;;21.35;7.40;;;;;;;;;;6197772;23;20184;-88
2021/08/12 18:45:27;;;;;;;16.85;8.13;;;;;;;;;;6196342;23;20172;-89
2021/08/12 18:48:32;;;;;;;19.52;7.03;;;;;;;;;;6198412;23;20247;-88
2021/08/12 18:51:45;;;;;;;12.82;7.32;;;;;;;;;;6196919;23;20184;-87
2021/08/12 18:54:51;;;;;;;19.50;9.18;;;;;;;;;;6197785;23;20766;-89
2021/08/12 18:57:57;;;;;;;19.50;9.30;;;;;;;;;;6195693;23;20162;-89
2021/08/12 19:01:02;;;;;;;15.27;7.60;;;;;;;;;;6196580;23;20171;-89
2021/08/12 19:04:07;;;;;;;13.75;7.15;;;;;;;;;;6208597;23;20293;-88
2021/08/12 19:07:12;;;;;;;71.50;43.63;;;;;;;;;;6207577;23;20163;-87
2021/08/12 19:10:19;;;;;;;16.33;8.82;;;;;;;;;;6211048;23;20162;-88
2021/08/12 19:13:24;;;;;;;14.60;7.38;;;;;;;;;;6209009;23;20498;-89
2021/08/12 19:16:29;;;;;;;15.77;7.90;;;;;;;;;;6209285;23;20246;-88
2021/08/12 19:19:34;;;;;;;17.00;7.50;;;;;;;;;;6209617;23;20218;-88
2021/08/12 19:22:40;;;;;;;15.80;7.78;;;;;;;;;;6210096;23;20155;-88
2021/08/12 19:25:47;;;;;;;15.38;7.97;;;;;;;;;;6210847;23;20611;-90
2021/08/12 19:28:53;;;;;;;14.95;8.30;;;;;;;;;;6210539;23;20171;-89
2021/08/12 19:31:58;;;;;;;15.60;8.32;;;;;;;;;;6209944;23;20249;-89
2021/08/12 19:35:03;;;;;;;15.55;7.95;;;;;;;;;;6209403;23;20159;-90
2021/08/12 19:38:08;;;;;;;14.48;7.95;;;;;;;;;;6210004;23;20167;-90
2021/08/12 19:41:16;;;;;;;17.88;7.57;;;;;;;;;;6211238;23;20240;-89
2021/08/12 19:44:21;;;;;;;15.38;8.05;;;;;;;;;;6212335;23;20273;-89
2021/08/12 19:47:26;;;;;;;16.63;7.47;;;;;;;;;;6213056;23;20207;-89
2021/08/12 19:50:32;;;;;;;18.00;7.60;;;;;;;;;;6209880;23;20158;-88
2021/08/12 19:53:38;;;;;;;12.88;7.70;;;;;;;;;;6212111;23;20246;-90
2021/08/12 19:56:44;;;;;;;13.30;7.65;;;;;;;;;;6212004;23;20246;-89
2021/08/12 19:59:49;;;;;;;18.25;7.55;;;;;;;;;;6211649;23;20174;-90
2021/08/12 20:02:54;;;;;;;13.18;7.50;;;;;;;;;;6211195;23;20174;-90
2021/08/12 20:05:59;;;;;;;14.48;8.73;;;;;;;;;;6197390;23;20163;-90
2021/08/12 20:09:04;;;;;;;18.58;8.13;;;;;;;;;;6197457;23;20156;-90
2021/08/12 20:12:11;;;;;;;13.65;7.50;;;;;;;;;;6197043;23;20212;-88
2021/08/12 20:15:16;;;;;;;16.65;7.38;;;;;;;;;;6199362;23;20159;-90
2021/08/12 20:18:22;;;;;;;14.32;7.68;;;;;;;;;;6198330;23;20164;-90
2021/08/12 20:21:27;;;;;;;20.95;8.02;;;;;;;;;;6198307;23;20196;-91
2021/08/12 20:24:33;;;;;;;17.38;8.27;;;;;;;;;;6198629;23;20282;-89
2021/08/12 20:27:40;;;;;;;17.15;7.80;;;;;;;;;;6198966;23;20167;-89
2021/08/12 20:30:45;;;;;;;12.90;7.90;;;;;;;;;;6198207;23;20247;-89
2021/08/12 20:33:51;;;;;;;14.55;8.05;;;;;;;;;;6200434;23;20207;-90
2021/08/12 20:36:57;;;;;;;31.63;21.65;;;;;;;;;;6201115;23;20203;-89
2021/08/12 20:40:02;;;;;;;19.15;8.95;;;;;;;;;;6199201;23;20834;-88
2021/08/12 20:43:10;;;;;;;14.35;7.88;;;;;;;;;;6201249;23;20221;-90
2021/08/12 20:46:17;;;;;;;17.20;7.78;;;;;;;;;;6202822;23;20168;-90
2021/08/12 20:49:23;;;;;;;16.60;8.00;;;;;;;;;;6201921;23;20497;-91
2021/08/12 20:52:29;;;;;;;17.20;8.90;;;;;;;;;;6201930;23;20207;-91